sensor_id;sensor_type;location;lat;lon;timestamp;P1;durP1;ratioP1;P2;durP2;ratioP2
25503;SDS011;13410;52.114;5.718;2023-02-13T00:02:11;30.95;;;17.17;;
25503;SDS011;13410;52.114;5.718;2023-02-13T00:04:38;33.72;;;17.63;;
25503;SDS011;13410;52.114;5.718;2023-02-13T00:07:03;31.75;;;17.38;;
25503;SDS011;13410;52.114;5.718;2023-02-13T00:09:29;31.70;;;18.73;;
25503;SDS011;13410;52.114;5.718;2023-02-13T00:11:54;32.25;;;18.67;;
25503;SDS011;13410;52.114;5.718;2023-02-13T00:14:20;33.95;;;17.77;;
25503;SDS011;13410;52.114;5.718;2023-02-13T00:16:45;34.20;;;18.42;;
25503;SDS011;13410;52.114;5.718;2023-02-13T00:19:11;33.83;;;18.98;;
25503;SDS011;13410;52.114;5.718;2023-02-13T00:21:36;36.28;;;18.20;;
25503;SDS011;13410;52.114;5.718;2023-02-13T00:24:02;33.47;;;18.30;;
25503;SDS011;13410;52.114;5.718;2023-02-13T00:26:28;33.90;;;18.77;;
25503;SDS011;13410;52.114;5.718;2023-02-13T00:28:55;36.45;;;18.67;;
25503;SDS011;13410;52.114;5.718;2023-02-13T00:31:20;34.05;;;18.00;;
25503;SDS011;13410;52.114;5.718;2023-02-13T00:33:46;35.80;;;19.55;;
25503;SDS011;13410;52.114;5.718;2023-02-13T00:36:13;35.58;;;18.60;;
25503;SDS011;13410;52.114;5.718;2023-02-13T00:38:43;35.22;;;18.63;;
25503;SDS011;13410;52.114;5.718;2023-02-13T00:41:09;35.05;;;18.40;;
25503;SDS011;13410;52.114;5.718;2023-02-13T00:43:35;31.55;;;17.20;;
25503;SDS011;13410;52.114;5.718;2023-02-13T00:46:01;32.85;;;19.13;;
25503;SDS011;13410;52.114;5.718;2023-02-13T00:48:27;33.92;;;18.20;;
25503;SDS011;13410;52.114;5.718;2023-02-13T00:50:54;34.00;;;18.13;;
25503;SDS011;13410;52.114;5.718;2023-02-13T00:53:21;32.97;;;17.90;;
25503;SDS011;13410;52.114;5.718;2023-02-13T00:55:47;35.47;;;17.75;;
25503;SDS011;13410;52.114;5.718;2023-02-13T00:58:13;33.28;;;18.38;;
25503;SDS011;13410;52.114;5.718;2023-02-13T01:00:40;32.05;;;18.30;;
25503;SDS011;13410;52.114;5.718;2023-02-13T01:03:06;33.17;;;18.30;;
25503;SDS011;13410;52.114;5.718;2023-02-13T01:05:31;32.65;;;17.98;;
25503;SDS011;13410;52.114;5.718;2023-02-13T01:07:57;33.17;;;17.70;;
25503;SDS011;13410;52.114;5.718;2023-02-13T01:10:23;30.60;;;17.08;;
25503;SDS011;13410;52.114;5.718;2023-02-13T01:12:49;30.92;;;16.65;;
25503;SDS011;13410;52.114;5.718;2023-02-13T01:15:16;31.88;;;17.35;;
25503;SDS011;13410;52.114;5.718;2023-02-13T01:17:42;31.88;;;17.10;;
25503;SDS011;13410;52.114;5.718;2023-02-13T01:20:08;32.63;;;17.83;;
25503;SDS011;13410;52.114;5.718;2023-02-13T01:22:35;30.98;;;16.83;;
25503;SDS011;13410;52.114;5.718;2023-02-13T01:25:01;34.60;;;17.42;;
25503;SDS011;13410;52.114;5.718;2023-02-13T01:27:27;32.85;;;17.42;;
25503;SDS011;13410;52.114;5.718;2023-02-13T01:29:53;34.35;;;17.67;;
25503;SDS011;13410;52.114;5.718;2023-02-13T01:32:19;33.20;;;17.38;;
25503;SDS011;13410;52.114;5.718;2023-02-13T01:34:45;32.97;;;16.92;;
25503;SDS011;13410;52.114;5.718;2023-02-13T01:37:10;33.92;;;16.90;;
25503;SDS011;13410;52.114;5.718;2023-02-13T01:39:36;33.72;;;17.40;;
25503;SDS011;13410;52.114;5.718;2023-02-13T01:42:02;29.83;;;16.63;;
25503;SDS011;13410;52.114;5.718;2023-02-13T01:47:16;32.42;;;16.55;;
25503;SDS011;13410;52.114;5.718;2023-02-13T01:49:53;33.42;;;16.40;;
25503;SDS011;13410;52.114;5.718;2023-02-13T01:52:25;37.10;;;16.27;;
25503;SDS011;13410;52.114;5.718;2023-02-13T01:54:52;33.33;;;16.73;;
25503;SDS011;13410;52.114;5.718;2023-02-13T01:57:18;33.05;;;16.92;;
25503;SDS011;13410;52.114;5.718;2023-02-13T01:59:52;33.53;;;17.85;;
25503;SDS011;13410;52.114;5.718;2023-02-13T02:02:22;31.17;;;16.50;;
25503;SDS011;13410;52.114;5.718;2023-02-13T02:04:48;32.85;;;17.02;;
25503;SDS011;13410;52.114;5.718;2023-02-13T02:07:22;32.75;;;17.17;;
25503;SDS011;13410;52.114;5.718;2023-02-13T02:09:50;31.23;;;16.20;;
25503;SDS011;13410;52.114;5.718;2023-02-13T02:12:25;32.47;;;16.17;;
25503;SDS011;13410;52.114;5.718;2023-02-13T02:14:56;32.33;;;16.35;;
25503;SDS011;13410;52.114;5.718;2023-02-13T02:17:25;33.17;;;16.35;;
25503;SDS011;13410;52.114;5.718;2023-02-13T02:33:39;30.63;;;15.35;;
25503;SDS011;13410;52.114;5.718;2023-02-13T02:39:21;29.58;;;15.25;;
25503;SDS011;13410;52.114;5.718;2023-02-13T02:42:02;34.28;;;16.33;;
25503;SDS011;13410;52.114;5.718;2023-02-13T02:45:23;34.10;;;15.63;;
25503;SDS011;13410;52.114;5.718;2023-02-13T02:50:36;32.45;;;16.05;;
25503;SDS011;13410;52.114;5.718;2023-02-13T02:56:07;29.63;;;15.52;;
25503;SDS011;13410;52.114;5.718;2023-02-13T02:59:03;32.85;;;14.88;;
25503;SDS011;13410;52.114;5.718;2023-02-13T03:01:59;30.17;;;15.05;;
25503;SDS011;13410;52.114;5.718;2023-02-13T03:04:51;30.55;;;15.30;;
25503;SDS011;13410;52.114;5.718;2023-02-13T03:07:38;33.50;;;16.05;;
25503;SDS011;13410;52.114;5.718;2023-02-13T03:10:11;27.23;;;14.32;;
25503;SDS011;13410;52.114;5.718;2023-02-13T03:13:14;27.98;;;13.40;;
25503;SDS011;13410;52.114;5.718;2023-02-13T03:15:53;28.73;;;14.88;;
25503;SDS011;13410;52.114;5.718;2023-02-13T03:18:45;32.38;;;15.07;;
25503;SDS011;13410;52.114;5.718;2023-02-13T03:21:42;29.17;;;14.30;;
25503;SDS011;13410;52.114;5.718;2023-02-13T03:24:59;29.40;;;14.50;;
25503;SDS011;13410;52.114;5.718;2023-02-13T03:39:22;32.63;;;15.15;;
25503;SDS011;13410;52.114;5.718;2023-02-13T03:44:30;32.45;;;15.30;;
25503;SDS011;13410;52.114;5.718;2023-02-13T03:46:57;34.15;;;15.57;;
25503;SDS011;13410;52.114;5.718;2023-02-13T03:49:30;34.88;;;16.23;;
25503;SDS011;13410;52.114;5.718;2023-02-13T03:52:24;31.40;;;15.00;;
25503;SDS011;13410;52.114;5.718;2023-02-13T03:55:01;34.15;;;15.00;;
25503;SDS011;13410;52.114;5.718;2023-02-13T03:57:46;28.90;;;15.02;;
25503;SDS011;13410;52.114;5.718;2023-02-13T04:00:33;33.40;;;15.93;;
25503;SDS011;13410;52.114;5.718;2023-02-13T04:03:08;30.40;;;14.57;;
25503;SDS011;13410;52.114;5.718;2023-02-13T04:05:44;30.52;;;14.98;;
25503;SDS011;13410;52.114;5.718;2023-02-13T04:08:13;29.45;;;15.18;;
25503;SDS011;13410;52.114;5.718;2023-02-13T04:10:42;34.22;;;15.88;;
25503;SDS011;13410;52.114;5.718;2023-02-13T04:13:31;29.98;;;15.73;;
25503;SDS011;13410;52.114;5.718;2023-02-13T04:16:05;35.40;;;16.57;;
25503;SDS011;13410;52.114;5.718;2023-02-13T04:18:38;32.00;;;15.48;;
25503;SDS011;13410;52.114;5.718;2023-02-13T04:21:04;29.65;;;15.48;;
25503;SDS011;13410;52.114;5.718;2023-02-13T04:23:31;31.40;;;14.82;;
25503;SDS011;13410;52.114;5.718;2023-02-13T04:25:57;31.20;;;15.63;;
25503;SDS011;13410;52.114;5.718;2023-02-13T04:28:29;37.55;;;20.17;;
25503;SDS011;13410;52.114;5.718;2023-02-13T04:30:54;33.40;;;16.63;;
25503;SDS011;13410;52.114;5.718;2023-02-13T04:33:21;32.42;;;16.30;;
25503;SDS011;13410;52.114;5.718;2023-02-13T04:35:47;32.47;;;16.10;;
25503;SDS011;13410;52.114;5.718;2023-02-13T04:38:12;32.67;;;15.95;;
25503;SDS011;13410;52.114;5.718;2023-02-13T04:40:38;31.33;;;15.75;;
25503;SDS011;13410;52.114;5.718;2023-02-13T04:43:03;31.45;;;15.48;;
25503;SDS011;13410;52.114;5.718;2023-02-13T04:45:29;34.65;;;16.85;;
25503;SDS011;13410;52.114;5.718;2023-02-13T04:47:55;31.92;;;16.48;;
25503;SDS011;13410;52.114;5.718;2023-02-13T04:50:21;31.00;;;16.58;;
25503;SDS011;13410;52.114;5.718;2023-02-13T04:52:49;35.35;;;17.30;;
25503;SDS011;13410;52.114;5.718;2023-02-13T04:55:20;32.13;;;16.00;;
25503;SDS011;13410;52.114;5.718;2023-02-13T04:57:47;33.35;;;16.52;;
25503;SDS011;13410;52.114;5.718;2023-02-13T05:00:13;34.58;;;16.73;;
25503;SDS011;13410;52.114;5.718;2023-02-13T05:02:38;37.10;;;16.35;;
25503;SDS011;13410;52.114;5.718;2023-02-13T05:05:04;34.42;;;16.73;;
25503;SDS011;13410;52.114;5.718;2023-02-13T05:07:30;36.00;;;17.52;;
25503;SDS011;13410;52.114;5.718;2023-02-13T05:09:55;36.38;;;17.90;;
25503;SDS011;13410;52.114;5.718;2023-02-13T05:12:21;34.20;;;17.98;;
25503;SDS011;13410;52.114;5.718;2023-02-13T05:14:46;38.75;;;17.90;;
25503;SDS011;13410;52.114;5.718;2023-02-13T05:17:12;39.63;;;18.20;;
25503;SDS011;13410;52.114;5.718;2023-02-13T05:19:37;38.97;;;18.35;;
25503;SDS011;13410;52.114;5.718;2023-02-13T05:22:03;38.42;;;17.90;;
25503;SDS011;13410;52.114;5.718;2023-02-13T05:24:47;34.47;;;16.90;;
25503;SDS011;13410;52.114;5.718;2023-02-13T05:27:13;40.60;;;17.90;;
25503;SDS011;13410;52.114;5.718;2023-02-13T05:29:38;36.70;;;17.85;;
25503;SDS011;13410;52.114;5.718;2023-02-13T05:32:04;38.08;;;17.98;;
25503;SDS011;13410;52.114;5.718;2023-02-13T05:34:29;34.75;;;17.85;;
25503;SDS011;13410;52.114;5.718;2023-02-13T05:36:55;41.33;;;18.60;;
25503;SDS011;13410;52.114;5.718;2023-02-13T05:39:21;33.72;;;17.13;;
25503;SDS011;13410;52.114;5.718;2023-02-13T05:41:47;35.58;;;18.08;;
25503;SDS011;13410;52.114;5.718;2023-02-13T05:44:13;37.47;;;17.33;;
25503;SDS011;13410;52.114;5.718;2023-02-13T05:46:39;36.70;;;17.48;;
25503;SDS011;13410;52.114;5.718;2023-02-13T05:49:06;33.80;;;17.48;;
25503;SDS011;13410;52.114;5.718;2023-02-13T05:51:33;39.05;;;18.63;;
25503;SDS011;13410;52.114;5.718;2023-02-13T05:53:58;37.50;;;18.77;;
25503;SDS011;13410;52.114;5.718;2023-02-13T05:56:24;37.30;;;19.35;;
25503;SDS011;13410;52.114;5.718;2023-02-13T05:58:50;40.90;;;20.45;;
25503;SDS011;13410;52.114;5.718;2023-02-13T06:01:16;40.00;;;21.10;;
25503;SDS011;13410;52.114;5.718;2023-02-13T06:03:43;39.78;;;20.05;;
25503;SDS011;13410;52.114;5.718;2023-02-13T06:06:08;40.25;;;19.40;;
25503;SDS011;13410;52.114;5.718;2023-02-13T06:08:34;42.10;;;20.48;;
25503;SDS011;13410;52.114;5.718;2023-02-13T06:11:00;41.22;;;19.73;;
25503;SDS011;13410;52.114;5.718;2023-02-13T06:13:25;38.40;;;18.77;;
25503;SDS011;13410;52.114;5.718;2023-02-13T06:15:51;38.65;;;19.58;;
25503;SDS011;13410;52.114;5.718;2023-02-13T06:18:17;39.15;;;18.70;;
25503;SDS011;13410;52.114;5.718;2023-02-13T06:20:42;38.83;;;19.27;;
25503;SDS011;13410;52.114;5.718;2023-02-13T06:23:08;39.58;;;19.65;;
25503;SDS011;13410;52.114;5.718;2023-02-13T06:25:34;37.15;;;18.77;;
25503;SDS011;13410;52.114;5.718;2023-02-13T06:28:00;40.83;;;20.85;;
25503;SDS011;13410;52.114;5.718;2023-02-13T06:30:26;36.72;;;18.23;;
25503;SDS011;13410;52.114;5.718;2023-02-13T06:32:52;40.03;;;20.45;;
25503;SDS011;13410;52.114;5.718;2023-02-13T06:35:18;41.83;;;20.17;;
25503;SDS011;13410;52.114;5.718;2023-02-13T06:37:43;38.00;;;19.90;;
25503;SDS011;13410;52.114;5.718;2023-02-13T06:40:09;42.33;;;19.75;;
25503;SDS011;13410;52.114;5.718;2023-02-13T06:42:36;39.28;;;20.23;;
25503;SDS011;13410;52.114;5.718;2023-02-13T06:45:01;38.33;;;19.58;;
25503;SDS011;13410;52.114;5.718;2023-02-13T06:47:27;40.17;;;19.83;;
25503;SDS011;13410;52.114;5.718;2023-02-13T06:49:53;38.75;;;19.83;;
25503;SDS011;13410;52.114;5.718;2023-02-13T06:52:18;41.03;;;20.48;;
25503;SDS011;13410;52.114;5.718;2023-02-13T06:54:44;37.40;;;19.63;;
25503;SDS011;13410;52.114;5.718;2023-02-13T06:57:10;39.80;;;19.85;;
25503;SDS011;13410;52.114;5.718;2023-02-13T06:59:35;43.35;;;20.38;;
25503;SDS011;13410;52.114;5.718;2023-02-13T07:02:01;40.75;;;20.10;;
25503;SDS011;13410;52.114;5.718;2023-02-13T07:04:26;38.42;;;19.80;;
25503;SDS011;13410;52.114;5.718;2023-02-13T07:06:55;40.58;;;20.58;;
25503;SDS011;13410;52.114;5.718;2023-02-13T07:09:22;39.53;;;20.73;;
25503;SDS011;13410;52.114;5.718;2023-02-13T07:11:48;43.28;;;20.85;;
25503;SDS011;13410;52.114;5.718;2023-02-13T07:14:14;41.85;;;21.25;;
25503;SDS011;13410;52.114;5.718;2023-02-13T07:16:39;41.65;;;21.67;;
25503;SDS011;13410;52.114;5.718;2023-02-13T07:19:05;37.22;;;20.17;;
25503;SDS011;13410;52.114;5.718;2023-02-13T07:21:30;41.30;;;19.83;;
25503;SDS011;13410;52.114;5.718;2023-02-13T07:23:56;40.50;;;21.00;;
25503;SDS011;13410;52.114;5.718;2023-02-13T07:26:21;38.72;;;20.30;;
25503;SDS011;13410;52.114;5.718;2023-02-13T07:28:47;39.40;;;20.10;;
25503;SDS011;13410;52.114;5.718;2023-02-13T07:31:13;41.75;;;20.42;;
25503;SDS011;13410;52.114;5.718;2023-02-13T07:33:38;36.63;;;20.17;;
25503;SDS011;13410;52.114;5.718;2023-02-13T07:36:04;40.33;;;20.67;;
25503;SDS011;13410;52.114;5.718;2023-02-13T07:38:30;37.35;;;19.52;;
25503;SDS011;13410;52.114;5.718;2023-02-13T07:40:59;37.97;;;20.38;;
25503;SDS011;13410;52.114;5.718;2023-02-13T07:43:26;39.00;;;19.90;;
25503;SDS011;13410;52.114;5.718;2023-02-13T07:45:52;43.67;;;21.52;;
25503;SDS011;13410;52.114;5.718;2023-02-13T07:48:23;38.08;;;20.38;;
25503;SDS011;13410;52.114;5.718;2023-02-13T07:53:17;39.08;;;20.13;;
25503;SDS011;13410;52.114;5.718;2023-02-13T07:55:42;35.85;;;19.85;;
25503;SDS011;13410;52.114;5.718;2023-02-13T07:58:08;40.38;;;21.38;;
25503;SDS011;13410;52.114;5.718;2023-02-13T08:00:33;38.45;;;19.95;;
25503;SDS011;13410;52.114;5.718;2023-02-13T08:02:59;39.28;;;21.55;;
25503;SDS011;13410;52.114;5.718;2023-02-13T08:05:25;38.65;;;19.80;;
25503;SDS011;13410;52.114;5.718;2023-02-13T08:07:51;39.42;;;20.27;;
25503;SDS011;13410;52.114;5.718;2023-02-13T08:10:17;45.03;;;22.25;;
25503;SDS011;13410;52.114;5.718;2023-02-13T08:13:02;41.95;;;21.35;;
25503;SDS011;13410;52.114;5.718;2023-02-13T08:15:29;38.58;;;20.10;;
25503;SDS011;13410;52.114;5.718;2023-02-13T08:17:54;38.80;;;20.77;;
25503;SDS011;13410;52.114;5.718;2023-02-13T08:20:20;37.05;;;20.48;;
25503;SDS011;13410;52.114;5.718;2023-02-13T08:22:45;40.65;;;20.77;;
25503;SDS011;13410;52.114;5.718;2023-02-13T08:25:11;36.17;;;20.02;;
25503;SDS011;13410;52.114;5.718;2023-02-13T08:27:37;41.58;;;21.15;;
25503;SDS011;13410;52.114;5.718;2023-02-13T08:30:03;37.63;;;20.83;;
25503;SDS011;13410;52.114;5.718;2023-02-13T08:32:29;39.40;;;21.42;;
25503;SDS011;13410;52.114;5.718;2023-02-13T08:34:55;37.85;;;20.77;;
25503;SDS011;13410;52.114;5.718;2023-02-13T08:37:21;47.40;;;27.55;;
25503;SDS011;13410;52.114;5.718;2023-02-13T08:39:46;38.08;;;21.33;;
25503;SDS011;13410;52.114;5.718;2023-02-13T08:42:12;48.47;;;27.58;;
25503;SDS011;13410;52.114;5.718;2023-02-13T08:44:37;36.72;;;21.15;;
25503;SDS011;13410;52.114;5.718;2023-02-13T08:47:05;48.25;;;25.02;;
25503;SDS011;13410;52.114;5.718;2023-02-13T08:49:31;38.97;;;22.27;;
25503;SDS011;13410;52.114;5.718;2023-02-13T08:51:58;38.30;;;21.95;;
25503;SDS011;13410;52.114;5.718;2023-02-13T08:54:25;38.92;;;21.73;;
25503;SDS011;13410;52.114;5.718;2023-02-13T08:56:51;34.72;;;19.88;;
25503;SDS011;13410;52.114;5.718;2023-02-13T08:59:18;36.92;;;20.65;;
25503;SDS011;13410;52.114;5.718;2023-02-13T09:01:43;34.67;;;19.75;;
25503;SDS011;13410;52.114;5.718;2023-02-13T09:04:09;34.33;;;20.42;;
25503;SDS011;13410;52.114;5.718;2023-02-13T09:06:35;35.65;;;20.45;;
25503;SDS011;13410;52.114;5.718;2023-02-13T09:09:01;36.45;;;20.60;;
25503;SDS011;13410;52.114;5.718;2023-02-13T09:11:29;36.30;;;19.80;;
25503;SDS011;13410;52.114;5.718;2023-02-13T09:13:54;33.33;;;18.90;;
25503;SDS011;13410;52.114;5.718;2023-02-13T09:16:20;32.55;;;18.73;;
25503;SDS011;13410;52.114;5.718;2023-02-13T09:18:47;32.28;;;17.70;;
25503;SDS011;13410;52.114;5.718;2023-02-13T09:21:16;33.70;;;19.88;;
25503;SDS011;13410;52.114;5.718;2023-02-13T09:23:43;32.83;;;18.65;;
25503;SDS011;13410;52.114;5.718;2023-02-13T09:26:10;33.80;;;19.08;;
25503;SDS011;13410;52.114;5.718;2023-02-13T09:28:38;33.88;;;19.40;;
25503;SDS011;13410;52.114;5.718;2023-02-13T09:31:07;30.05;;;18.30;;
25503;SDS011;13410;52.114;5.718;2023-02-13T09:33:34;31.35;;;18.33;;
25503;SDS011;13410;52.114;5.718;2023-02-13T09:36:04;31.60;;;18.35;;
25503;SDS011;13410;52.114;5.718;2023-02-13T09:40:58;30.27;;;17.95;;
25503;SDS011;13410;52.114;5.718;2023-02-13T09:43:31;28.75;;;16.95;;
25503;SDS011;13410;52.114;5.718;2023-02-13T09:46:09;31.13;;;17.83;;
25503;SDS011;13410;52.114;5.718;2023-02-13T09:48:43;29.20;;;17.08;;
25503;SDS011;13410;52.114;5.718;2023-02-13T09:51:13;29.33;;;16.63;;
25503;SDS011;13410;52.114;5.718;2023-02-13T09:53:51;28.27;;;17.25;;
25503;SDS011;13410;52.114;5.718;2023-02-13T09:56:29;30.63;;;18.35;;
25503;SDS011;13410;52.114;5.718;2023-02-13T10:01:40;28.98;;;17.27;;
25503;SDS011;13410;52.114;5.718;2023-02-13T10:06:56;33.10;;;18.17;;
25503;SDS011;13410;52.114;5.718;2023-02-13T10:15:39;31.48;;;19.13;;
25503;SDS011;13410;52.114;5.718;2023-02-13T10:18:04;29.58;;;17.73;;
25503;SDS011;13410;52.114;5.718;2023-02-13T10:23:14;30.85;;;18.90;;
25503;SDS011;13410;52.114;5.718;2023-02-13T10:25:49;30.17;;;19.33;;
25503;SDS011;13410;52.114;5.718;2023-02-13T10:28:29;30.15;;;18.60;;
25503;SDS011;13410;52.114;5.718;2023-02-13T10:31:06;32.10;;;19.25;;
25503;SDS011;13410;52.114;5.718;2023-02-13T10:33:46;34.55;;;18.52;;
25503;SDS011;13410;52.114;5.718;2023-02-13T10:36:23;30.48;;;18.73;;
25503;SDS011;13410;52.114;5.718;2023-02-13T10:38:59;41.20;;;23.38;;
25503;SDS011;13410;52.114;5.718;2023-02-13T10:44:17;32.67;;;19.55;;
25503;SDS011;13410;52.114;5.718;2023-02-13T10:47:01;34.15;;;19.98;;
25503;SDS011;13410;52.114;5.718;2023-02-13T10:49:45;35.95;;;21.17;;
25503;SDS011;13410;52.114;5.718;2023-02-13T10:57:56;41.15;;;27.13;;
25503;SDS011;13410;52.114;5.718;2023-02-13T11:00:28;36.75;;;22.13;;
25503;SDS011;13410;52.114;5.718;2023-02-13T11:02:56;34.83;;;21.05;;
25503;SDS011;13410;52.114;5.718;2023-02-13T11:05:24;34.58;;;20.67;;
25503;SDS011;13410;52.114;5.718;2023-02-13T11:07:54;37.42;;;22.23;;
25503;SDS011;13410;52.114;5.718;2023-02-13T11:10:22;34.13;;;20.65;;
25503;SDS011;13410;52.114;5.718;2023-02-13T11:12:49;37.35;;;22.27;;
25503;SDS011;13410;52.114;5.718;2023-02-13T11:15:34;35.72;;;21.98;;
25503;SDS011;13410;52.114;5.718;2023-02-13T11:18:11;32.90;;;21.42;;
25503;SDS011;13410;52.114;5.718;2023-02-13T11:25:55;35.28;;;21.23;;
25503;SDS011;13410;52.114;5.718;2023-02-13T11:28:23;34.00;;;21.25;;
25503;SDS011;13410;52.114;5.718;2023-02-13T11:30:51;36.45;;;21.75;;
25503;SDS011;13410;52.114;5.718;2023-02-13T11:35:46;34.85;;;21.08;;
25503;SDS011;13410;52.114;5.718;2023-02-13T11:38:21;31.73;;;21.67;;
25503;SDS011;13410;52.114;5.718;2023-02-13T11:40:49;28.50;;;18.45;;
25503;SDS011;13410;52.114;5.718;2023-02-13T11:48:57;29.60;;;18.60;;
25503;SDS011;13410;52.114;5.718;2023-02-13T11:51:35;29.92;;;20.08;;
25503;SDS011;13410;52.114;5.718;2023-02-13T11:54:00;61.92;;;38.28;;
25503;SDS011;13410;52.114;5.718;2023-02-13T11:56:27;52.58;;;32.80;;
25503;SDS011;13410;52.114;5.718;2023-02-13T11:58:59;36.97;;;19.42;;
25503;SDS011;13410;52.114;5.718;2023-02-13T12:01:26;28.17;;;18.55;;
25503;SDS011;13410;52.114;5.718;2023-02-13T12:04:06;34.05;;;20.73;;
25503;SDS011;13410;52.114;5.718;2023-02-13T12:06:56;39.78;;;25.25;;
25503;SDS011;13410;52.114;5.718;2023-02-13T12:09:24;32.05;;;20.85;;
25503;SDS011;13410;52.114;5.718;2023-02-13T12:11:50;33.53;;;22.27;;
25503;SDS011;13410;52.114;5.718;2023-02-13T12:14:19;30.73;;;19.60;;
25503;SDS011;13410;52.114;5.718;2023-02-13T12:17:29;32.78;;;20.58;;
25503;SDS011;13410;52.114;5.718;2023-02-13T12:19:46;43.80;;;27.42;;
25503;SDS011;13410;52.114;5.718;2023-02-13T12:28:06;37.60;;;22.75;;
25503;SDS011;13410;52.114;5.718;2023-02-13T12:30:39;36.03;;;23.55;;
25503;SDS011;13410;52.114;5.718;2023-02-13T12:36:17;35.23;;;22.30;;
25503;SDS011;13410;52.114;5.718;2023-02-13T12:51:46;32.38;;;21.63;;
25503;SDS011;13410;52.114;5.718;2023-02-13T13:05:46;28.17;;;17.55;;
25503;SDS011;13410;52.114;5.718;2023-02-13T13:11:05;25.42;;;16.63;;
25503;SDS011;13410;52.114;5.718;2023-02-13T13:14:04;28.73;;;16.00;;
25503;SDS011;13410;52.114;5.718;2023-02-13T13:22:19;22.20;;;13.77;;
25503;SDS011;13410;52.114;5.718;2023-02-13T13:27:43;21.00;;;14.63;;
25503;SDS011;13410;52.114;5.718;2023-02-13T13:30:42;21.58;;;14.23;;
25503;SDS011;13410;52.114;5.718;2023-02-13T13:33:11;21.98;;;13.93;;
25503;SDS011;13410;52.114;5.718;2023-02-13T13:35:39;23.38;;;13.80;;
25503;SDS011;13410;52.114;5.718;2023-02-13T13:38:41;18.13;;;12.68;;
25503;SDS011;13410;52.114;5.718;2023-02-13T13:41:17;20.15;;;13.55;;
25503;SDS011;13410;52.114;5.718;2023-02-13T13:50:21;18.38;;;13.23;;
25503;SDS011;13410;52.114;5.718;2023-02-13T13:58:35;24.15;;;15.10;;
25503;SDS011;13410;52.114;5.718;2023-02-13T14:01:27;21.02;;;13.80;;
25503;SDS011;13410;52.114;5.718;2023-02-13T14:09:39;29.30;;;19.23;;
25503;SDS011;13410;52.114;5.718;2023-02-13T14:12:49;26.27;;;18.05;;
25503;SDS011;13410;52.114;5.718;2023-02-13T14:14:55;21.42;;;15.13;;
25503;SDS011;13410;52.114;5.718;2023-02-13T14:23:31;26.42;;;17.33;;
25503;SDS011;13410;52.114;5.718;2023-02-13T14:31:19;27.27;;;18.33;;
25503;SDS011;13410;52.114;5.718;2023-02-13T14:33:54;27.73;;;18.15;;
25503;SDS011;13410;52.114;5.718;2023-02-13T14:36:29;29.33;;;19.05;;
25503;SDS011;13410;52.114;5.718;2023-02-13T14:39:07;29.13;;;19.90;;
25503;SDS011;13410;52.114;5.718;2023-02-13T14:42:00;27.55;;;18.98;;
25503;SDS011;13410;52.114;5.718;2023-02-13T14:44:46;27.48;;;18.63;;
25503;SDS011;13410;52.114;5.718;2023-02-13T14:47:20;29.13;;;19.40;;
25503;SDS011;13410;52.114;5.718;2023-02-13T14:49:51;31.98;;;20.05;;
25503;SDS011;13410;52.114;5.718;2023-02-13T14:52:18;28.00;;;18.90;;
25503;SDS011;13410;52.114;5.718;2023-02-13T14:54:55;32.92;;;19.95;;
25503;SDS011;13410;52.114;5.718;2023-02-13T14:57:27;32.65;;;20.58;;
25503;SDS011;13410;52.114;5.718;2023-02-13T14:59:57;52.28;;;31.95;;
25503;SDS011;13410;52.114;5.718;2023-02-13T15:04:57;32.38;;;20.60;;
25503;SDS011;13410;52.114;5.718;2023-02-13T15:07:27;30.27;;;21.05;;
25503;SDS011;13410;52.114;5.718;2023-02-13T15:10:01;33.47;;;20.48;;
25503;SDS011;13410;52.114;5.718;2023-02-13T15:12:47;29.97;;;19.80;;
25503;SDS011;13410;52.114;5.718;2023-02-13T15:17:56;31.03;;;19.03;;
25503;SDS011;13410;52.114;5.718;2023-02-13T15:20:25;28.65;;;20.05;;
25503;SDS011;13410;52.114;5.718;2023-02-13T15:22:52;30.30;;;21.00;;
25503;SDS011;13410;52.114;5.718;2023-02-13T15:27:53;30.38;;;21.02;;
25503;SDS011;13410;52.114;5.718;2023-02-13T15:32:52;39.10;;;25.67;;
25503;SDS011;13410;52.114;5.718;2023-02-13T15:37:49;33.25;;;22.73;;
25503;SDS011;13410;52.114;5.718;2023-02-13T15:40:18;33.83;;;20.10;;
25503;SDS011;13410;52.114;5.718;2023-02-13T15:42:53;28.60;;;20.08;;
25503;SDS011;13410;52.114;5.718;2023-02-13T15:45:20;31.58;;;19.67;;
25503;SDS011;13410;52.114;5.718;2023-02-13T15:47:49;32.08;;;20.00;;
25503;SDS011;13410;52.114;5.718;2023-02-13T15:52:55;36.63;;;21.13;;
25503;SDS011;13410;52.114;5.718;2023-02-13T15:55:22;31.48;;;21.85;;
25503;SDS011;13410;52.114;5.718;2023-02-13T15:57:50;34.13;;;21.35;;
25503;SDS011;13410;52.114;5.718;2023-02-13T16:00:41;32.70;;;20.00;;
25503;SDS011;13410;52.114;5.718;2023-02-13T16:03:10;31.10;;;19.80;;
25503;SDS011;13410;52.114;5.718;2023-02-13T16:05:39;30.45;;;20.13;;
25503;SDS011;13410;52.114;5.718;2023-02-13T16:16:54;35.85;;;21.23;;
25503;SDS011;13410;52.114;5.718;2023-02-13T16:19:31;30.35;;;20.50;;
25503;SDS011;13410;52.114;5.718;2023-02-13T16:22:04;35.08;;;21.13;;
25503;SDS011;13410;52.114;5.718;2023-02-13T16:27:19;33.45;;;22.33;;
25503;SDS011;13410;52.114;5.718;2023-02-13T16:30:01;30.90;;;20.92;;
25503;SDS011;13410;52.114;5.718;2023-02-13T16:32:31;39.05;;;23.20;;
25503;SDS011;13410;52.114;5.718;2023-02-13T16:35:14;36.88;;;23.05;;
25503;SDS011;13410;52.114;5.718;2023-02-13T16:37:58;39.70;;;23.75;;
25503;SDS011;13410;52.114;5.718;2023-02-13T16:40:36;34.92;;;22.27;;
25503;SDS011;13410;52.114;5.718;2023-02-13T16:46:11;33.63;;;22.20;;
25503;SDS011;13410;52.114;5.718;2023-02-13T16:49:30;32.83;;;21.77;;
25503;SDS011;13410;52.114;5.718;2023-02-13T16:51:45;34.63;;;22.17;;
25503;SDS011;13410;52.114;5.718;2023-02-13T16:56:48;31.90;;;21.10;;
25503;SDS011;13410;52.114;5.718;2023-02-13T17:04:39;36.33;;;22.38;;
25503;SDS011;13410;52.114;5.718;2023-02-13T17:07:49;34.42;;;21.67;;
25503;SDS011;13410;52.114;5.718;2023-02-13T17:09:58;36.67;;;22.33;;
25503;SDS011;13410;52.114;5.718;2023-02-13T17:12:26;35.45;;;22.75;;
25503;SDS011;13410;52.114;5.718;2023-02-13T17:14:54;39.22;;;23.48;;
25503;SDS011;13410;52.114;5.718;2023-02-13T17:17:22;34.33;;;22.27;;
25503;SDS011;13410;52.114;5.718;2023-02-13T17:19:48;34.10;;;22.75;;
25503;SDS011;13410;52.114;5.718;2023-02-13T17:22:22;40.75;;;24.33;;
25503;SDS011;13410;52.114;5.718;2023-02-13T17:24:54;38.20;;;23.83;;
25503;SDS011;13410;52.114;5.718;2023-02-13T17:27:21;39.53;;;23.77;;
25503;SDS011;13410;52.114;5.718;2023-02-13T17:29:47;40.25;;;24.83;;
25503;SDS011;13410;52.114;5.718;2023-02-13T17:32:14;41.15;;;24.08;;
25503;SDS011;13410;52.114;5.718;2023-02-13T17:34:42;40.65;;;24.00;;
25503;SDS011;13410;52.114;5.718;2023-02-13T17:37:31;41.08;;;25.58;;
25503;SDS011;13410;52.114;5.718;2023-02-13T17:39:56;38.15;;;24.17;;
25503;SDS011;13410;52.114;5.718;2023-02-13T17:42:26;42.00;;;25.33;;
25503;SDS011;13410;52.114;5.718;2023-02-13T17:44:54;42.60;;;25.50;;
25503;SDS011;13410;52.114;5.718;2023-02-13T17:47:22;43.00;;;25.98;;
25503;SDS011;13410;52.114;5.718;2023-02-13T17:49:49;43.50;;;26.55;;
25503;SDS011;13410;52.114;5.718;2023-02-13T17:52:21;45.63;;;27.63;;
25503;SDS011;13410;52.114;5.718;2023-02-13T17:54:53;46.08;;;27.05;;